• Join FlightAware (Why Join?)
  • Login
  • US Flag 
02:12AM EDT


 

Airport Tracker/Info


-or-


 

Live Flight TrackerFlight Track Log ✈ SWA561 ✈ 26-Apr-2013 ✈ KOAK - KLAX

Flight Track Log - Related Links

Times and Time Zones

All times are in EDT time to prevent confusion due to time zone crossing. See the SWA561 flight status page for this flight to view local times or setup timezone preferences in your user account.

Time Position Orientation Groundspeed Altitude Reporting Facility
EDT Latitude Longitude Course Direction KTS MPH feet Rate Location/Type
08:14PM 37.7333 -122.2500 288° West 155 178 1,700  Level Northern Cal TRACON
08:15PM 37.7500 -122.3167 288° West 211 243 5,000 2,820 Climbing Northern Cal TRACON
08:16PM 37.7514 -122.3450 274° West 211 243 6,100 3,060 Climbing Oakland Center
08:16PM 37.7333 -122.3833 239° Southwest 279 321 7,800 3,420 Climbing Northern Cal TRACON
08:18PM 37.6047 -122.4303 196° South 308 354 13,200 3,360 Climbing Oakland Center
08:19PM 37.5214 -122.3808 155° Southeast 361 415 16,700 3,300 Climbing Oakland Center
08:20PM 37.4558 -122.2831 130° Southeast 368 423 20,000 3,480 Climbing Oakland Center
08:21PM 37.3822 -122.1894 135° Southeast 376 433 23,900 3,420 Climbing Oakland Center
08:22PM 37.2942 -122.0739 134° Southeast 383 441 27,100 2,820 Climbing Oakland Center
08:23PM 37.2178 -121.9731 134° Southeast 398 458 29,700 2,220 Climbing Oakland Center
08:24PM 37.1397 -121.8700 134° Southeast 407 468 31,800 1,860 Climbing Oakland Center
08:25PM 37.0569 -121.7653 135° Southeast 422 486 33,600 1,740 Climbing Oakland Center
08:26PM 36.9731 -121.6581 134° Southeast 430 495 35,400 1,740 Climbing Oakland Center
08:27PM 36.8903 -121.5489 133° Southeast 433 498 37,200 1,560 Climbing Oakland Center
08:28PM 36.8003 -121.4308 134° Southeast 437 503 38,700 840 Climbing Oakland Center
08:29PM 36.7139 -121.3233 135° Southeast 439 505 39,000 120 Climbing Oakland Center
08:30PM 36.6281 -121.2128 134° Southeast 443 510 39,000  Level Oakland Center
08:31PM 36.5417 -121.1044 135° Southeast 442 509 39,000  Level Oakland Center
08:32PM 36.4567 -120.9931 133° Southeast 442 509 39,000  Level Oakland Center
08:33PM 36.3522 -120.8600 134° Southeast 448 516 39,000  Level Oakland Center
08:34PM 36.2653 -120.7500 134° Southeast 449 517 39,000  Level Oakland Center
08:35PM 36.1775 -120.6383 134° Southeast 450 518 39,000  Level Oakland Center
08:36PM 36.0897 -120.5278 134° Southeast 450 518 39,000  Level Oakland Center
08:37PM 36.0017 -120.4172 135° Southeast 450 518 39,000  Level Oakland Center
08:38PM 35.9131 -120.3097 135° Southeast 445 512 39,000  Level Oakland Center
08:39PM 35.8256 -120.1989 134° Southeast 448 516 39,000  Level Oakland Center
08:40PM 35.7372 -120.0906 135° Southeast 444 511 39,000  Level Oakland Center
08:41PM 35.6483 -119.9800 135° Southeast 448 516 39,000  Level Oakland Center
08:42PM 35.5453 -119.8892 144° Southeast 447 514 39,000  Level Oakland Center
08:43PM 35.4411 -119.7997 145° Southeast 451 519 39,000  Level Oakland Center
08:44PM 35.3181 -119.6947 145° Southeast 446 513 39,000 -660 Level Oakland Center
08:45PM 35.2156 -119.6078 145° Southeast 447 514 37,700 -1,980 Descending Oakland Center
08:46PM 35.1131 -119.5203 145° Southeast 447 514 35,000 -2,820 Descending Oakland Center
08:47PM 35.0106 -119.4333 145° Southeast 447 514 32,000 -2,700 Descending Oakland Center
08:48PM 34.9083 -119.3469 145° Southeast 447 514 29,500 -2,400 Descending Oakland Center
08:49PM 34.8897 -119.3289 141° Southeast 447 514 29,000 -2,220 Descending Los Angeles Center
08:50PM 34.7911 -119.2458 145° Southeast 435 501 26,700 -2,280 Descending Los Angeles Center
08:51PM 34.6967 -119.1661 145° Southeast 418 481 24,400 -2,160 Descending Los Angeles Center
08:52PM 34.6003 -119.0858 146° Southeast 404 465 22,300 -2,280 Descending Los Angeles Center
08:53PM 34.4947 -118.9969 145° Southeast 380 437 19,700 -2,220 Descending Los Angeles Center
08:54PM 34.4108 -118.9269 145° Southeast 368 423 17,800 -2,100 Descending Los Angeles Center
08:55PM 34.3228 -118.8692 152° Southeast 356 410 15,400 -1,800 Descending Los Angeles Center
08:56PM 34.2289 -118.8342 163° South 349 402 14,100 -1,260 Descending Los Angeles Center
08:57PM 34.1442 -118.8031 163° South 319 367 12,800 -1,560 Descending Los Angeles Center
08:58PM 34.0500 -118.7628 160° South 311 358 10,900 -1,380 Descending Los Angeles Center
08:59PM 34.0306 -118.6717 104° East 281 323 10,000 -1,320 Descending Los Angeles Center
09:00PM 34.0208 -118.5703 97° East 284 327 8,200 -1,500 Descending Los Angeles Center
09:01PM 34.0119 -118.4769 97° East 279 321 7,000 -1,020 Descending Los Angeles Center
09:02PM 34.0169 -118.3931 86° East 269 310 6,100 -1,260 Descending Los Angeles Center
09:03PM 34.0264 -118.3053 83° East 265 305 4,500 -1,320 Descending Los Angeles Center
09:04PM 34.0161 -118.2247 99° East 262 302 3,400 -840 Descending Los Angeles Center
09:05PM 33.9706 -118.2606 213° Southwest 229 264 2,800 -840 Descending Los Angeles Center
09:06PM 33.9606 -118.3219 259° West 174 200 1,700 -1,020 Descending Los Angeles Center
09:07PM 33.9569 -118.3653 264° West 149 171 800 -780 Descending Los Angeles Center
09:08PM 33.9525 -118.4047 262° West 132 152 100 -720 Descending Los Angeles Center
09:10PM 33.9425 -118.4081 228° Southwest  Level Estimated
09:17PM 33.9425 -118.4081 228° Southwest  Level Estimated